sensor_id;sensor_type;location;lat;lon;timestamp;pressure;altitude;pressure_sealevel;temperature;humidity
69351;BME280;57106;51.446;-2.606;2023-05-01T00:00:46;101835.19;;;13.50;72.92
69351;BME280;57106;51.446;-2.606;2023-05-01T00:03:10;101834.21;;;13.46;72.68
69351;BME280;57106;51.446;-2.606;2023-05-01T00:05:36;101833.97;;;13.41;72.92
69351;BME280;57106;51.446;-2.606;2023-05-01T00:08:02;101835.16;;;13.21;73.58
69351;BME280;57106;51.446;-2.606;2023-05-01T00:10:27;101834.59;;;13.41;73.45
69351;BME280;57106;51.446;-2.606;2023-05-01T00:12:52;101835.49;;;13.39;73.16
69351;BME280;57106;51.446;-2.606;2023-05-01T00:15:18;101833.48;;;13.46;73.01
69351;BME280;57106;51.446;-2.606;2023-05-01T00:17:47;101836.88;;;13.46;72.55
69351;BME280;57106;51.446;-2.606;2023-05-01T00:20:10;101833.09;;;13.55;72.47
69351;BME280;57106;51.446;-2.606;2023-05-01T00:22:34;101833.43;;;13.51;72.68
69351;BME280;57106;51.446;-2.606;2023-05-01T00:25:00;101830.88;;;13.58;72.77
69351;BME280;57106;51.446;-2.606;2023-05-01T00:27:25;101826.69;;;13.68;72.39
69351;BME280;57106;51.446;-2.606;2023-05-01T00:29:50;101820.50;;;13.74;72.11
69351;BME280;57106;51.446;-2.606;2023-05-01T00:32:16;101818.52;;;13.71;72.16
69351;BME280;57106;51.446;-2.606;2023-05-01T00:34:42;101813.24;;;13.67;72.22
69351;BME280;57106;51.446;-2.606;2023-05-01T00:37:07;101808.27;;;13.75;72.13
69351;BME280;57106;51.446;-2.606;2023-05-01T00:39:32;101803.40;;;13.77;71.88
69351;BME280;57106;51.446;-2.606;2023-05-01T00:41:58;101797.44;;;13.74;71.99
69351;BME280;57106;51.446;-2.606;2023-05-01T00:44:24;101794.78;;;13.64;72.48
69351;BME280;57106;51.446;-2.606;2023-05-01T00:46:49;101787.69;;;13.77;71.92
69351;BME280;57106;51.446;-2.606;2023-05-01T00:49:15;101781.83;;;13.57;72.07
69351;BME280;57106;51.446;-2.606;2023-05-01T00:51:40;101781.79;;;13.56;72.47
69351;BME280;57106;51.446;-2.606;2023-05-01T00:54:06;101774.90;;;13.51;73.17
69351;BME280;57106;51.446;-2.606;2023-05-01T00:56:31;101776.99;;;13.42;73.72
69351;BME280;57106;51.446;-2.606;2023-05-01T00:58:57;101773.60;;;13.50;73.82
69351;BME280;57106;51.446;-2.606;2023-05-01T01:01:22;101773.62;;;13.61;73.74
69351;BME280;57106;51.446;-2.606;2023-05-01T01:03:48;101771.39;;;13.43;73.79
69351;BME280;57106;51.446;-2.606;2023-05-01T01:06:31;101767.82;;;13.60;73.73
69351;BME280;57106;51.446;-2.606;2023-05-01T01:08:42;101764.65;;;13.43;73.58
69351;BME280;57106;51.446;-2.606;2023-05-01T01:11:12;101761.62;;;13.45;73.80
69351;BME280;57106;51.446;-2.606;2023-05-01T01:13:35;101758.40;;;13.26;74.55
69351;BME280;57106;51.446;-2.606;2023-05-01T01:16:01;101755.79;;;13.17;74.53
69351;BME280;57106;51.446;-2.606;2023-05-01T01:18:26;101751.89;;;13.23;74.88
69351;BME280;57106;51.446;-2.606;2023-05-01T01:20:51;101747.67;;;13.12;74.86
69351;BME280;57106;51.446;-2.606;2023-05-01T01:23:24;101748.74;;;13.09;75.55
69351;BME280;57106;51.446;-2.606;2023-05-01T01:25:49;101748.93;;;13.08;75.34
69351;BME280;57106;51.446;-2.606;2023-05-01T01:28:16;101751.59;;;13.12;75.45
69351;BME280;57106;51.446;-2.606;2023-05-01T01:30:34;101746.53;;;13.06;75.35
69351;BME280;57106;51.446;-2.606;2023-05-01T01:35:21;101737.34;;;13.22;75.40
69351;BME280;57106;51.446;-2.606;2023-05-01T01:37:50;101734.16;;;13.05;75.60
69351;BME280;57106;51.446;-2.606;2023-05-01T01:40:13;101732.11;;;13.03;75.63
69351;BME280;57106;51.446;-2.606;2023-05-01T01:42:39;101729.81;;;13.05;75.51
69351;BME280;57106;51.446;-2.606;2023-05-01T01:45:06;101724.83;;;13.12;75.49
69351;BME280;57106;51.446;-2.606;2023-05-01T01:47:29;101723.12;;;13.09;75.14
69351;BME280;57106;51.446;-2.606;2023-05-01T01:49:52;101718.40;;;13.14;74.76
69351;BME280;57106;51.446;-2.606;2023-05-01T01:52:18;101713.55;;;12.93;75.04
69351;BME280;57106;51.446;-2.606;2023-05-01T01:54:49;101708.82;;;12.59;76.47
69351;BME280;57106;51.446;-2.606;2023-05-01T01:57:10;101706.76;;;12.54;76.93
69351;BME280;57106;51.446;-2.606;2023-05-01T01:59:34;101706.95;;;12.62;76.67
69351;BME280;57106;51.446;-2.606;2023-05-01T02:02:00;101705.72;;;12.67;76.61
69351;BME280;57106;51.446;-2.606;2023-05-01T02:04:26;101704.06;;;12.85;75.93
69351;BME280;57106;51.446;-2.606;2023-05-01T02:06:51;101699.68;;;12.92;75.62
69351;BME280;57106;51.446;-2.606;2023-05-01T02:09:18;101699.98;;;13.06;75.08
69351;BME280;57106;51.446;-2.606;2023-05-01T02:11:42;101697.57;;;12.89;75.54
69351;BME280;57106;51.446;-2.606;2023-05-01T02:14:07;101697.13;;;13.08;75.20
69351;BME280;57106;51.446;-2.606;2023-05-01T02:16:33;101696.36;;;12.95;74.72
69351;BME280;57106;51.446;-2.606;2023-05-01T02:18:59;101698.84;;;13.04;74.69
69351;BME280;57106;51.446;-2.606;2023-05-01T02:21:24;101701.00;;;13.12;74.22
69351;BME280;57106;51.446;-2.606;2023-05-01T02:23:48;101703.62;;;13.10;74.47
69351;BME280;57106;51.446;-2.606;2023-05-01T02:26:15;101701.66;;;13.02;74.73
69351;BME280;57106;51.446;-2.606;2023-05-01T02:28:40;101697.15;;;13.18;74.06
69351;BME280;57106;51.446;-2.606;2023-05-01T02:31:05;101694.19;;;13.23;74.05
69351;BME280;57106;51.446;-2.606;2023-05-01T02:33:31;101695.24;;;13.09;74.68
69351;BME280;57106;51.446;-2.606;2023-05-01T02:35:56;101697.51;;;12.95;75.14
69351;BME280;57106;51.446;-2.606;2023-05-01T02:38:22;101696.37;;;12.97;75.49
69351;BME280;57106;51.446;-2.606;2023-05-01T02:40:51;101696.95;;;12.71;76.04
69351;BME280;57106;51.446;-2.606;2023-05-01T02:43:15;101694.45;;;12.75;76.68
69351;BME280;57106;51.446;-2.606;2023-05-01T02:45:39;101698.05;;;12.78;76.72
69351;BME280;57106;51.446;-2.606;2023-05-01T02:48:05;101689.34;;;13.06;76.08
69351;BME280;57106;51.446;-2.606;2023-05-01T02:50:29;101687.71;;;12.84;76.47
69351;BME280;57106;51.446;-2.606;2023-05-01T02:52:55;101685.89;;;12.80;76.74
69351;BME280;57106;51.446;-2.606;2023-05-01T02:55:20;101684.03;;;12.78;77.15
69351;BME280;57106;51.446;-2.606;2023-05-01T02:57:45;101683.29;;;12.85;76.85
69351;BME280;57106;51.446;-2.606;2023-05-01T03:00:12;101677.62;;;12.71;76.76
69351;BME280;57106;51.446;-2.606;2023-05-01T03:02:37;101678.80;;;12.67;77.43
69351;BME280;57106;51.446;-2.606;2023-05-01T03:05:02;101676.08;;;12.66;77.14
69351;BME280;57106;51.446;-2.606;2023-05-01T03:07:28;101672.87;;;12.71;77.44
69351;BME280;57106;51.446;-2.606;2023-05-01T03:09:53;101670.83;;;12.62;77.50
69351;BME280;57106;51.446;-2.606;2023-05-01T03:12:19;101664.64;;;12.48;78.29
69351;BME280;57106;51.446;-2.606;2023-05-01T03:14:44;101665.68;;;12.51;78.55
69351;BME280;57106;51.446;-2.606;2023-05-01T03:17:10;101662.66;;;12.57;78.45
69351;BME280;57106;51.446;-2.606;2023-05-01T03:19:35;101656.24;;;12.22;79.21
69351;BME280;57106;51.446;-2.606;2023-05-01T03:22:00;101656.38;;;12.27;79.76
69351;BME280;57106;51.446;-2.606;2023-05-01T03:24:26;101654.65;;;12.24;79.68
69351;BME280;57106;51.446;-2.606;2023-05-01T03:26:51;101652.61;;;12.31;79.74
69351;BME280;57106;51.446;-2.606;2023-05-01T03:29:17;101653.52;;;12.30;80.07
69351;BME280;57106;51.446;-2.606;2023-05-01T03:31:43;101655.71;;;12.24;80.15
69351;BME280;57106;51.446;-2.606;2023-05-01T03:34:08;101654.71;;;12.33;80.36
69351;BME280;57106;51.446;-2.606;2023-05-01T03:36:33;101660.29;;;12.35;79.83
69351;BME280;57106;51.446;-2.606;2023-05-01T03:38:59;101659.68;;;12.24;80.60
69351;BME280;57106;51.446;-2.606;2023-05-01T03:41:25;101658.66;;;12.52;79.90
69351;BME280;57106;51.446;-2.606;2023-05-01T03:43:52;101656.43;;;12.71;79.00
69351;BME280;57106;51.446;-2.606;2023-05-01T03:46:16;101657.32;;;12.70;78.95
69351;BME280;57106;51.446;-2.606;2023-05-01T03:51:07;101653.50;;;12.49;79.33
69351;BME280;57106;51.446;-2.606;2023-05-01T03:53:32;101657.56;;;12.64;79.53
69351;BME280;57106;51.446;-2.606;2023-05-01T03:55:58;101656.17;;;12.69;79.31
69351;BME280;57106;51.446;-2.606;2023-05-01T03:58:23;101648.95;;;12.62;79.37
69351;BME280;57106;51.446;-2.606;2023-05-01T04:00:49;101652.66;;;12.66;79.23
69351;BME280;57106;51.446;-2.606;2023-05-01T04:03:14;101653.69;;;12.59;79.49
69351;BME280;57106;51.446;-2.606;2023-05-01T04:05:39;101649.57;;;12.61;79.83
69351;BME280;57106;51.446;-2.606;2023-05-01T04:08:05;101652.99;;;12.64;79.86
69351;BME280;57106;51.446;-2.606;2023-05-01T04:10:30;101651.98;;;12.55;80.51
69351;BME280;57106;51.446;-2.606;2023-05-01T04:12:56;101649.52;;;12.52;80.58
69351;BME280;57106;51.446;-2.606;2023-05-01T04:15:21;101651.92;;;12.50;80.68
69351;BME280;57106;51.446;-2.606;2023-05-01T04:17:47;101651.53;;;12.54;80.60
69351;BME280;57106;51.446;-2.606;2023-05-01T04:20:13;101652.49;;;12.77;79.52
69351;BME280;57106;51.446;-2.606;2023-05-01T04:22:38;101652.43;;;12.60;80.17
69351;BME280;57106;51.446;-2.606;2023-05-01T04:25:04;101651.05;;;12.50;80.44
69351;BME280;57106;51.446;-2.606;2023-05-01T04:27:29;101650.22;;;12.48;80.76
69351;BME280;57106;51.446;-2.606;2023-05-01T04:29:55;101650.12;;;12.63;80.33
69351;BME280;57106;51.446;-2.606;2023-05-01T04:32:20;101648.18;;;12.68;80.04
69351;BME280;57106;51.446;-2.606;2023-05-01T04:34:46;101638.89;;;12.53;80.28
69351;BME280;57106;51.446;-2.606;2023-05-01T04:37:11;101640.83;;;12.58;80.39
69351;BME280;57106;51.446;-2.606;2023-05-01T04:39:37;101645.70;;;12.55;79.94
69351;BME280;57106;51.446;-2.606;2023-05-01T04:42:03;101647.00;;;12.53;80.35
69351;BME280;57106;51.446;-2.606;2023-05-01T04:44:28;101645.95;;;12.63;80.20
69351;BME280;57106;51.446;-2.606;2023-05-01T04:46:53;101652.32;;;12.67;79.80
69351;BME280;57106;51.446;-2.606;2023-05-01T04:49:20;101656.87;;;12.65;79.96
69351;BME280;57106;51.446;-2.606;2023-05-01T04:51:45;101658.51;;;12.75;79.80
69351;BME280;57106;51.446;-2.606;2023-05-01T04:54:10;101652.30;;;12.91;78.62
69351;BME280;57106;51.446;-2.606;2023-05-01T04:56:35;101653.50;;;12.73;79.69
69351;BME280;57106;51.446;-2.606;2023-05-01T04:59:01;101650.55;;;12.56;80.31
69351;BME280;57106;51.446;-2.606;2023-05-01T05:01:25;101654.43;;;12.63;79.84
69351;BME280;57106;51.446;-2.606;2023-05-01T05:06:17;101653.13;;;12.66;80.24
69351;BME280;57106;51.446;-2.606;2023-05-01T05:08:43;101657.38;;;12.73;79.63
69351;BME280;57106;51.446;-2.606;2023-05-01T05:11:08;101658.52;;;12.59;79.97
69351;BME280;57106;51.446;-2.606;2023-05-01T05:13:33;101664.68;;;12.74;80.02
69351;BME280;57106;51.446;-2.606;2023-05-01T05:15:58;101660.88;;;12.94;79.23
69351;BME280;57106;51.446;-2.606;2023-05-01T05:18:24;101654.28;;;12.97;78.83
69351;BME280;57106;51.446;-2.606;2023-05-01T05:20:49;101653.33;;;12.92;78.93
69351;BME280;57106;51.446;-2.606;2023-05-01T05:23:15;101661.05;;;12.97;78.86
69351;BME280;57106;51.446;-2.606;2023-05-01T05:25:40;101667.70;;;12.95;78.97
69351;BME280;57106;51.446;-2.606;2023-05-01T05:28:05;101669.50;;;13.14;78.37
69351;BME280;57106;51.446;-2.606;2023-05-01T05:30:31;101673.50;;;13.15;78.18
69351;BME280;57106;51.446;-2.606;2023-05-01T05:32:56;101676.15;;;13.02;78.42
69351;BME280;57106;51.446;-2.606;2023-05-01T05:35:22;101683.70;;;13.03;77.96
69351;BME280;57106;51.446;-2.606;2023-05-01T05:37:48;101679.14;;;13.06;78.08
69351;BME280;57106;51.446;-2.606;2023-05-01T05:40:13;101674.12;;;13.21;77.83
69351;BME280;57106;51.446;-2.606;2023-05-01T05:42:39;101673.50;;;13.15;77.83
69351;BME280;57106;51.446;-2.606;2023-05-01T05:45:05;101677.11;;;13.24;77.37
69351;BME280;57106;51.446;-2.606;2023-05-01T05:47:30;101681.28;;;13.32;76.93
69351;BME280;57106;51.446;-2.606;2023-05-01T05:49:55;101686.93;;;13.00;78.18
69351;BME280;57106;51.446;-2.606;2023-05-01T05:52:21;101688.32;;;13.14;77.78
69351;BME280;57106;51.446;-2.606;2023-05-01T05:54:46;101687.32;;;13.26;77.59
69351;BME280;57106;51.446;-2.606;2023-05-01T05:57:12;101685.25;;;13.19;77.05
69351;BME280;57106;51.446;-2.606;2023-05-01T05:59:37;101685.03;;;13.14;77.53
69351;BME280;57106;51.446;-2.606;2023-05-01T06:02:02;101689.26;;;13.23;77.51
69351;BME280;57106;51.446;-2.606;2023-05-01T06:04:28;101693.20;;;13.24;77.72
69351;BME280;57106;51.446;-2.606;2023-05-01T06:06:53;101693.25;;;13.30;77.21
69351;BME280;57106;51.446;-2.606;2023-05-01T06:09:19;101695.11;;;13.48;76.98
69351;BME280;57106;51.446;-2.606;2023-05-01T06:11:44;101697.00;;;13.52;76.70
69351;BME280;57106;51.446;-2.606;2023-05-01T06:14:10;101700.00;;;13.52;76.48
69351;BME280;57106;51.446;-2.606;2023-05-01T06:16:35;101706.03;;;13.56;76.49
69351;BME280;57106;51.446;-2.606;2023-05-01T06:19:01;101708.76;;;13.72;76.02
69351;BME280;57106;51.446;-2.606;2023-05-01T06:21:26;101707.45;;;13.51;76.17
69351;BME280;57106;51.446;-2.606;2023-05-01T06:23:51;101709.01;;;13.75;75.80
69351;BME280;57106;51.446;-2.606;2023-05-01T06:26:17;101713.72;;;13.78;75.46
69351;BME280;57106;51.446;-2.606;2023-05-01T06:28:43;101716.08;;;13.92;75.41
69351;BME280;57106;51.446;-2.606;2023-05-01T06:31:08;101714.60;;;13.95;74.85
69351;BME280;57106;51.446;-2.606;2023-05-01T06:33:33;101717.07;;;13.98;74.61
69351;BME280;57106;51.446;-2.606;2023-05-01T06:35:59;101713.02;;;14.07;74.60
69351;BME280;57106;51.446;-2.606;2023-05-01T06:38:25;101707.82;;;14.04;74.53
69351;BME280;57106;51.446;-2.606;2023-05-01T06:40:50;101706.11;;;14.21;73.37
69351;BME280;57106;51.446;-2.606;2023-05-01T06:43:15;101707.80;;;14.22;74.05
69351;BME280;57106;51.446;-2.606;2023-05-01T06:45:41;101710.56;;;14.57;72.97
69351;BME280;57106;51.446;-2.606;2023-05-01T06:48:06;101711.67;;;14.45;72.66
69351;BME280;57106;51.446;-2.606;2023-05-01T06:50:32;101716.00;;;14.63;72.00
69351;BME280;57106;51.446;-2.606;2023-05-01T06:52:57;101717.38;;;14.38;72.85
69351;BME280;57106;51.446;-2.606;2023-05-01T06:55:23;101721.97;;;14.26;73.01
69351;BME280;57106;51.446;-2.606;2023-05-01T06:57:48;101727.93;;;14.26;72.75
69351;BME280;57106;51.446;-2.606;2023-05-01T07:00:15;101728.14;;;14.20;72.88
69351;BME280;57106;51.446;-2.606;2023-05-01T07:02:39;101726.44;;;14.24;72.77
69351;BME280;57106;51.446;-2.606;2023-05-01T07:05:07;101731.00;;;14.33;72.83
69351;BME280;57106;51.446;-2.606;2023-05-01T07:07:30;101734.21;;;14.45;72.54
69351;BME280;57106;51.446;-2.606;2023-05-01T07:09:56;101736.01;;;14.43;72.13
69351;BME280;57106;51.446;-2.606;2023-05-01T07:12:21;101737.50;;;14.48;72.58
69351;BME280;57106;51.446;-2.606;2023-05-01T07:14:47;101741.32;;;14.52;72.66
69351;BME280;57106;51.446;-2.606;2023-05-01T07:17:12;101742.26;;;14.51;72.02
69351;BME280;57106;51.446;-2.606;2023-05-01T07:19:37;101743.62;;;14.37;72.60
69351;BME280;57106;51.446;-2.606;2023-05-01T07:22:03;101744.79;;;14.41;72.52
69351;BME280;57106;51.446;-2.606;2023-05-01T07:24:28;101746.90;;;14.67;72.06
69351;BME280;57106;51.446;-2.606;2023-05-01T07:26:54;101755.17;;;14.90;71.68
69351;BME280;57106;51.446;-2.606;2023-05-01T07:29:19;101757.71;;;15.02;70.85
69351;BME280;57106;51.446;-2.606;2023-05-01T07:31:46;101755.05;;;15.07;70.95
69351;BME280;57106;51.446;-2.606;2023-05-01T07:34:11;101752.52;;;15.03;70.62
69351;BME280;57106;51.446;-2.606;2023-05-01T07:36:36;101753.05;;;14.89;70.88
69351;BME280;57106;51.446;-2.606;2023-05-01T07:39:01;101754.34;;;14.83;70.99
69351;BME280;57106;51.446;-2.606;2023-05-01T07:41:26;101756.97;;;14.94;70.89
69351;BME280;57106;51.446;-2.606;2023-05-01T07:43:52;101757.45;;;14.96;70.36
69351;BME280;57106;51.446;-2.606;2023-05-01T07:46:17;101757.35;;;14.69;71.53
69351;BME280;57106;51.446;-2.606;2023-05-01T07:48:43;101758.79;;;14.76;71.36
69351;BME280;57106;51.446;-2.606;2023-05-01T07:51:08;101759.05;;;15.09;70.45
69351;BME280;57106;51.446;-2.606;2023-05-01T07:53:34;101761.82;;;15.29;69.87
69351;BME280;57106;51.446;-2.606;2023-05-01T07:56:05;101763.51;;;15.32;69.68
69351;BME280;57106;51.446;-2.606;2023-05-01T07:58:25;101765.72;;;15.46;69.11
69351;BME280;57106;51.446;-2.606;2023-05-01T08:00:51;101765.84;;;15.57;68.61
69351;BME280;57106;51.446;-2.606;2023-05-01T08:03:19;101768.67;;;15.59;67.98
69351;BME280;57106;51.446;-2.606;2023-05-01T08:05:42;101774.11;;;15.48;68.15
69351;BME280;57106;51.446;-2.606;2023-05-01T08:08:07;101771.43;;;15.58;67.95
69351;BME280;57106;51.446;-2.606;2023-05-01T08:10:32;101773.39;;;15.57;67.58
69351;BME280;57106;51.446;-2.606;2023-05-01T08:12:58;101775.60;;;15.58;67.38
69351;BME280;57106;51.446;-2.606;2023-05-01T08:15:23;101779.39;;;15.72;67.72
69351;BME280;57106;51.446;-2.606;2023-05-01T08:17:49;101780.02;;;15.49;67.48
69351;BME280;57106;51.446;-2.606;2023-05-01T08:20:15;101782.02;;;15.65;68.05
69351;BME280;57106;51.446;-2.606;2023-05-01T08:22:40;101782.75;;;15.86;67.42
69351;BME280;57106;51.446;-2.606;2023-05-01T08:25:07;101783.24;;;15.86;66.80
69351;BME280;57106;51.446;-2.606;2023-05-01T08:27:31;101789.29;;;15.70;67.53
69351;BME280;57106;51.446;-2.606;2023-05-01T08:29:57;101786.24;;;15.74;67.19
69351;BME280;57106;51.446;-2.606;2023-05-01T08:32:22;101787.74;;;15.80;66.62
69351;BME280;57106;51.446;-2.606;2023-05-01T08:34:47;101787.20;;;15.76;67.12
69351;BME280;57106;51.446;-2.606;2023-05-01T08:37:13;101784.39;;;16.04;66.25
69351;BME280;57106;51.446;-2.606;2023-05-01T08:39:38;101789.50;;;16.32;64.75
69351;BME280;57106;51.446;-2.606;2023-05-01T08:42:05;101787.23;;;16.25;64.37
69351;BME280;57106;51.446;-2.606;2023-05-01T08:44:30;101783.79;;;16.23;64.67
69351;BME280;57106;51.446;-2.606;2023-05-01T08:47:03;101786.93;;;16.13;65.56
69351;BME280;57106;51.446;-2.606;2023-05-01T08:49:21;101788.07;;;15.93;65.83
69351;BME280;57106;51.446;-2.606;2023-05-01T08:51:46;101791.79;;;15.84;65.25
69351;BME280;57106;51.446;-2.606;2023-05-01T08:54:11;101796.37;;;15.87;65.66
69351;BME280;57106;51.446;-2.606;2023-05-01T08:56:38;101796.45;;;16.17;64.88
69351;BME280;57106;51.446;-2.606;2023-05-01T08:59:03;101800.66;;;16.30;64.46
69351;BME280;57106;51.446;-2.606;2023-05-01T09:01:28;101800.46;;;16.56;64.34
69351;BME280;57106;51.446;-2.606;2023-05-01T09:03:54;101803.89;;;16.68;64.26
69351;BME280;57106;51.446;-2.606;2023-05-01T09:06:19;101807.19;;;17.04;62.84
69351;BME280;57106;51.446;-2.606;2023-05-01T09:08:44;101814.72;;;17.04;62.54
69351;BME280;57106;51.446;-2.606;2023-05-01T09:11:10;101809.07;;;16.82;62.71
69351;BME280;57106;51.446;-2.606;2023-05-01T09:13:35;101810.81;;;16.85;63.50
69351;BME280;57106;51.446;-2.606;2023-05-01T09:16:00;101810.89;;;16.84;62.75
69351;BME280;57106;51.446;-2.606;2023-05-01T09:18:26;101811.94;;;16.97;62.35
69351;BME280;57106;51.446;-2.606;2023-05-01T09:20:51;101813.91;;;16.82;63.07
69351;BME280;57106;51.446;-2.606;2023-05-01T09:23:16;101819.18;;;16.63;63.32
69351;BME280;57106;51.446;-2.606;2023-05-01T09:25:42;101817.04;;;16.55;63.31
69351;BME280;57106;51.446;-2.606;2023-05-01T09:28:07;101813.18;;;16.61;63.53
69351;BME280;57106;51.446;-2.606;2023-05-01T09:30:34;101808.17;;;16.90;63.76
69351;BME280;57106;51.446;-2.606;2023-05-01T09:33:04;101815.04;;;17.22;62.29
69351;BME280;57106;51.446;-2.606;2023-05-01T09:35:23;101816.02;;;17.30;62.55
69351;BME280;57106;51.446;-2.606;2023-05-01T09:37:51;101813.29;;;17.03;62.62
69351;BME280;57106;51.446;-2.606;2023-05-01T09:40:14;101808.24;;;17.05;62.57
69351;BME280;57106;51.446;-2.606;2023-05-01T09:42:41;101810.85;;;17.02;62.57
69351;BME280;57106;51.446;-2.606;2023-05-01T09:45:11;101810.89;;;17.16;62.69
69351;BME280;57106;51.446;-2.606;2023-05-01T09:47:30;101817.75;;;17.23;63.47
69351;BME280;57106;51.446;-2.606;2023-05-01T09:49:56;101816.79;;;17.24;61.61
69351;BME280;57106;51.446;-2.606;2023-05-01T09:52:21;101820.38;;;17.44;61.81
69351;BME280;57106;51.446;-2.606;2023-05-01T09:54:46;101823.58;;;17.23;62.89
69351;BME280;57106;51.446;-2.606;2023-05-01T09:57:12;101828.44;;;17.18;62.72
69351;BME280;57106;51.446;-2.606;2023-05-01T09:59:37;101834.11;;;17.00;63.34
69351;BME280;57106;51.446;-2.606;2023-05-01T10:02:03;101830.02;;;17.15;62.86
69351;BME280;57106;51.446;-2.606;2023-05-01T10:04:30;101831.64;;;17.28;63.13
69351;BME280;57106;51.446;-2.606;2023-05-01T10:06:54;101833.47;;;17.16;62.02
69351;BME280;57106;51.446;-2.606;2023-05-01T10:09:26;101835.55;;;17.18;62.71
69351;BME280;57106;51.446;-2.606;2023-05-01T10:11:49;101837.87;;;17.59;62.29
69351;BME280;57106;51.446;-2.606;2023-05-01T10:14:10;101834.64;;;17.67;61.32
69351;BME280;57106;51.446;-2.606;2023-05-01T10:16:37;101830.35;;;17.50;60.58
69351;BME280;57106;51.446;-2.606;2023-05-01T10:19:01;101828.91;;;17.74;60.97
69351;BME280;57106;51.446;-2.606;2023-05-01T10:21:27;101829.72;;;17.53;61.52
69351;BME280;57106;51.446;-2.606;2023-05-01T10:23:52;101833.12;;;17.63;61.11
69351;BME280;57106;51.446;-2.606;2023-05-01T10:26:17;101830.88;;;17.52;61.57
69351;BME280;57106;51.446;-2.606;2023-05-01T10:28:45;101832.26;;;17.62;61.69
69351;BME280;57106;51.446;-2.606;2023-05-01T10:31:09;101832.96;;;17.44;62.19
69351;BME280;57106;51.446;-2.606;2023-05-01T10:33:34;101838.54;;;17.77;62.18
69351;BME280;57106;51.446;-2.606;2023-05-01T10:35:59;101839.19;;;17.89;61.78
69351;BME280;57106;51.446;-2.606;2023-05-01T10:38:28;101840.16;;;17.77;62.09
69351;BME280;57106;51.446;-2.606;2023-05-01T10:40:50;101840.50;;;17.82;61.47
69351;BME280;57106;51.446;-2.606;2023-05-01T10:43:17;101845.34;;;18.12;60.83
69351;BME280;57106;51.446;-2.606;2023-05-01T10:45:40;101849.09;;;17.89;61.22
69351;BME280;57106;51.446;-2.606;2023-05-01T10:48:06;101851.91;;;17.52;61.32
69351;BME280;57106;51.446;-2.606;2023-05-01T10:50:32;101853.38;;;17.58;61.03
69351;BME280;57106;51.446;-2.606;2023-05-01T10:55:32;101846.40;;;17.66;59.85
69351;BME280;57106;51.446;-2.606;2023-05-01T10:57:47;101848.04;;;17.83;60.63
69351;BME280;57106;51.446;-2.606;2023-05-01T11:00:14;101845.11;;;17.78;59.48
69351;BME280;57106;51.446;-2.606;2023-05-01T11:02:38;101846.93;;;17.74;59.44
69351;BME280;57106;51.446;-2.606;2023-05-01T11:05:04;101848.10;;;17.70;59.38
69351;BME280;57106;51.446;-2.606;2023-05-01T11:07:29;101849.69;;;17.85;59.34
69351;BME280;57106;51.446;-2.606;2023-05-01T11:09:55;101849.06;;;18.04;59.21
69351;BME280;57106;51.446;-2.606;2023-05-01T11:17:10;101835.86;;;18.61;54.23
69351;BME280;57106;51.446;-2.606;2023-05-01T11:19:45;101831.87;;;18.64;54.43
69351;BME280;57106;51.446;-2.606;2023-05-01T11:22:01;101844.92;;;18.58;53.99
69351;BME280;57106;51.446;-2.606;2023-05-01T11:24:31;101844.82;;;18.54;53.41
69351;BME280;57106;51.446;-2.606;2023-05-01T11:26:52;101839.95;;;18.43;53.26
69351;BME280;57106;51.446;-2.606;2023-05-01T11:29:17;101838.87;;;18.43;53.65
69351;BME280;57106;51.446;-2.606;2023-05-01T11:31:47;101838.11;;;18.39;54.58
69351;BME280;57106;51.446;-2.606;2023-05-01T11:34:08;101839.28;;;18.32;54.44
69351;BME280;57106;51.446;-2.606;2023-05-01T11:36:47;101835.02;;;18.22;54.40
69351;BME280;57106;51.446;-2.606;2023-05-01T11:38:58;101835.87;;;18.08;55.97
69351;BME280;57106;51.446;-2.606;2023-05-01T11:41:25;101841.27;;;17.67;58.46
69351;BME280;57106;51.446;-2.606;2023-05-01T11:43:50;101847.11;;;17.25;60.00
69351;BME280;57106;51.446;-2.606;2023-05-01T11:46:23;101847.83;;;16.95;61.03
69351;BME280;57106;51.446;-2.606;2023-05-01T11:48:40;101849.15;;;17.03;61.21
69351;BME280;57106;51.446;-2.606;2023-05-01T11:51:11;101848.92;;;17.03;61.32
69351;BME280;57106;51.446;-2.606;2023-05-01T11:53:31;101853.49;;;17.28;60.26
69351;BME280;57106;51.446;-2.606;2023-05-01T11:55:56;101853.55;;;17.49;60.03
69351;BME280;57106;51.446;-2.606;2023-05-01T11:58:32;101855.64;;;17.73;59.31
69351;BME280;57106;51.446;-2.606;2023-05-01T12:00:49;101855.70;;;17.39;59.73
69351;BME280;57106;51.446;-2.606;2023-05-01T12:03:13;101853.61;;;17.58;58.99
69351;BME280;57106;51.446;-2.606;2023-05-01T12:05:39;101855.54;;;17.40;59.76
69351;BME280;57106;51.446;-2.606;2023-05-01T12:08:09;101854.62;;;17.72;59.33
69351;BME280;57106;51.446;-2.606;2023-05-01T12:10:29;101853.59;;;17.63;59.78
69351;BME280;57106;51.446;-2.606;2023-05-01T12:12:54;101851.95;;;17.97;59.05
69351;BME280;57106;51.446;-2.606;2023-05-01T12:15:19;101855.75;;;18.10;59.09
69351;BME280;57106;51.446;-2.606;2023-05-01T12:17:45;101854.91;;;18.56;58.93
69351;BME280;57106;51.446;-2.606;2023-05-01T12:20:10;101857.15;;;18.60;58.66
69351;BME280;57106;51.446;-2.606;2023-05-01T12:25:01;101853.75;;;18.95;58.06
69351;BME280;57106;51.446;-2.606;2023-05-01T12:27:27;101853.23;;;18.99;57.41
69351;BME280;57106;51.446;-2.606;2023-05-01T12:29:51;101853.85;;;18.88;56.99
69351;BME280;57106;51.446;-2.606;2023-05-01T12:32:17;101851.21;;;18.83;56.31
69351;BME280;57106;51.446;-2.606;2023-05-01T12:34:42;101849.53;;;19.02;55.26
69351;BME280;57106;51.446;-2.606;2023-05-01T12:37:11;101847.86;;;19.00;54.18
69351;BME280;57106;51.446;-2.606;2023-05-01T12:39:37;101848.97;;;19.38;53.65
69351;BME280;57106;51.446;-2.606;2023-05-01T12:41:58;101846.65;;;19.60;51.88
69351;BME280;57106;51.446;-2.606;2023-05-01T12:44:25;101844.50;;;19.13;55.37
69351;BME280;57106;51.446;-2.606;2023-05-01T12:46:53;101852.64;;;18.82;55.33